Portada
METAR-TAF:

METAR-TAF

Aeropuertos :

Aeropuerto Cherif Al Idrissi

Alhucemas, Marruecos

latitud: 35-11N, longitud: 003-51W, altitud: 27 m

Observación

El informe se hizo hace 47 minutos, a las 23:00 UTC
Viento 4 kt del sur-suroeste
Temperatura 11°C
Humedad 66%
Presión 1025 hPa
Visibilidad 10 km o más
sin nubes por debajo de 1500 m y sin presencia de cumulonimbus.

METAR: GMTA 152300Z 20004KT CAVOK 11/05 Q1025 NOSIG

Hora: 23:47 (23:47 UTC)

Pronóstico

El informe se hizo hace 47 minutos, a las 23:00 UTC
Pronóstico válido del 16 a las 00 UTC al 17 a las 06 UTC
Viento 4 kt del este
Visibilidad: 8000 m

TAF: GMTA 152300Z 1600/1706 08004KT 8000 NSC

Observaciones y pronósticos meteorológicos de más de 4000 aeropuertos (mensajes METAR y TAF).

Los puntos amarillos y rojos representan las estaciones disponibles.

Ponga el ratón en el punto deseado para ver el nombre de la estación.

Haga clic para ver las observaciones y los pronósticos meteorológicos.

Para cambiar el mapa : haga clic en los botones verdes con una cruz de color negro para hacer un zoom, en el botón verde con un guión para alejar o en las flechas verdes para mapas adyacentes.


METAR-TAF: